Accueil
METAR-TAF:

METAR-TAF

Aéroports :

Pacific Missile Range Facility

Kekaha, Hawaï, États-Unis

latitude: 22-02-11N, longitude: 159-47-11W, altitude: 4 m

Observation

Le bulletin a été fait il y a 23 minutes, à 01:51 UTC
Vent 10 kt de ouest/nord-ouest
Température 31°C
Humidité 55%
Pression 1016 hPa
Visibilité: 16.1 km
Quelques nuages à une hauteur de 4900 ft

METAR: PHBK 230151Z AUTO 29010KT 10SM FEW049 31/21 A3001 RMK AO2 SLP164 T03110206 $

Heure: 16:14 (02:14 UTC)


TAF: absent

Observations et prévisions météorologiques de plus de 4000 aéroports (messages METAR et TAF).

Les stations disponibles sont représentées par des disques jaunes et rouges sur la carte.

Passer la souris dessus pour voir le nom de la station.

Cliquer dessus pour voir les observations et prévisions météorologiques.

Pour changer de carte: cliquez sur les boutons verts avec une croix noire pour zoomer, sur le bouton vert avec un tiret pour effectuer un zoom arrière, ou sur les flèches vertes pour les cartes adjacentes.


METAR-TAF: